sensor_id;sensor_type;location;lat;lon;timestamp;P1;durP1;ratioP1;P2;durP2;ratioP2
5379;SDS011;2713;42.680;23.310;2024-02-21T00:01:51;4.63;;;4.23;;
5379;SDS011;2713;42.680;23.310;2024-02-21T00:04:19;5.53;;;5.03;;
5379;SDS011;2713;42.680;23.310;2024-02-21T00:06:45;6.30;;;5.30;;
5379;SDS011;2713;42.680;23.310;2024-02-21T00:09:12;5.90;;;5.30;;
5379;SDS011;2713;42.680;23.310;2024-02-21T00:11:39;5.73;;;5.00;;
5379;SDS011;2713;42.680;23.310;2024-02-21T00:14:06;6.83;;;5.23;;
5379;SDS011;2713;42.680;23.310;2024-02-21T00:16:32;5.70;;;4.70;;
5379;SDS011;2713;42.680;23.310;2024-02-21T00:18:59;6.03;;;5.20;;
5379;SDS011;2713;42.680;23.310;2024-02-21T00:21:27;6.60;;;5.37;;
5379;SDS011;2713;42.680;23.310;2024-02-21T00:23:54;6.67;;;5.60;;
5379;SDS011;2713;42.680;23.310;2024-02-21T00:26:21;6.07;;;4.93;;
5379;SDS011;2713;42.680;23.310;2024-02-21T00:28:48;5.57;;;5.07;;
5379;SDS011;2713;42.680;23.310;2024-02-21T00:31:14;5.00;;;4.43;;
5379;SDS011;2713;42.680;23.310;2024-02-21T00:33:41;6.60;;;5.10;;
5379;SDS011;2713;42.680;23.310;2024-02-21T00:36:08;5.30;;;4.57;;
5379;SDS011;2713;42.680;23.310;2024-02-21T00:38:36;5.67;;;5.07;;
5379;SDS011;2713;42.680;23.310;2024-02-21T00:41:03;6.50;;;5.30;;
5379;SDS011;2713;42.680;23.310;2024-02-21T00:43:29;6.17;;;4.77;;
5379;SDS011;2713;42.680;23.310;2024-02-21T00:45:56;5.13;;;4.63;;
5379;SDS011;2713;42.680;23.310;2024-02-21T00:48:23;5.07;;;4.53;;
5379;SDS011;2713;42.680;23.310;2024-02-21T00:50:50;5.17;;;4.67;;
5379;SDS011;2713;42.680;23.310;2024-02-21T00:53:17;4.77;;;4.37;;
5379;SDS011;2713;42.680;23.310;2024-02-21T00:55:45;6.30;;;5.20;;
5379;SDS011;2713;42.680;23.310;2024-02-21T00:58:11;4.63;;;4.23;;
5379;SDS011;2713;42.680;23.310;2024-02-21T01:00:38;5.80;;;4.53;;
5379;SDS011;2713;42.680;23.310;2024-02-21T01:03:05;5.10;;;4.57;;
5379;SDS011;2713;42.680;23.310;2024-02-21T01:05:32;5.83;;;5.27;;
5379;SDS011;2713;42.680;23.310;2024-02-21T01:07:58;5.20;;;4.57;;
5379;SDS011;2713;42.680;23.310;2024-02-21T01:10:25;5.63;;;5.00;;
5379;SDS011;2713;42.680;23.310;2024-02-21T01:12:53;6.17;;;5.03;;
5379;SDS011;2713;42.680;23.310;2024-02-21T01:15:20;5.10;;;4.60;;
5379;SDS011;2713;42.680;23.310;2024-02-21T01:17:47;5.20;;;4.70;;
5379;SDS011;2713;42.680;23.310;2024-02-21T01:20:15;5.63;;;5.07;;
5379;SDS011;2713;42.680;23.310;2024-02-21T01:22:42;5.13;;;4.67;;
5379;SDS011;2713;42.680;23.310;2024-02-21T01:25:09;5.70;;;5.20;;
5379;SDS011;2713;42.680;23.310;2024-02-21T01:27:36;5.70;;;4.93;;
5379;SDS011;2713;42.680;23.310;2024-02-21T01:30:04;5.73;;;5.13;;
5379;SDS011;2713;42.680;23.310;2024-02-21T01:32:32;5.50;;;5.00;;
5379;SDS011;2713;42.680;23.310;2024-02-21T01:34:59;6.03;;;5.43;;
5379;SDS011;2713;42.680;23.310;2024-02-21T01:37:26;5.80;;;5.20;;
5379;SDS011;2713;42.680;23.310;2024-02-21T01:39:53;6.27;;;5.60;;
5379;SDS011;2713;42.680;23.310;2024-02-21T01:42:19;6.00;;;5.20;;
5379;SDS011;2713;42.680;23.310;2024-02-21T01:44:46;6.50;;;5.60;;
5379;SDS011;2713;42.680;23.310;2024-02-21T01:47:14;5.73;;;5.13;;
5379;SDS011;2713;42.680;23.310;2024-02-21T01:49:41;5.70;;;4.70;;
5379;SDS011;2713;42.680;23.310;2024-02-21T01:52:08;5.90;;;5.30;;
5379;SDS011;2713;42.680;23.310;2024-02-21T01:54:37;5.97;;;5.37;;
5379;SDS011;2713;42.680;23.310;2024-02-21T01:57:04;5.90;;;5.00;;
5379;SDS011;2713;42.680;23.310;2024-02-21T01:59:31;5.20;;;4.70;;
5379;SDS011;2713;42.680;23.310;2024-02-21T02:01:58;4.73;;;4.33;;
5379;SDS011;2713;42.680;23.310;2024-02-21T02:04:28;6.03;;;5.40;;
5379;SDS011;2713;42.680;23.310;2024-02-21T02:06:55;5.67;;;5.17;;
5379;SDS011;2713;42.680;23.310;2024-02-21T02:09:23;6.87;;;5.37;;
5379;SDS011;2713;42.680;23.310;2024-02-21T02:11:50;5.47;;;4.67;;
5379;SDS011;2713;42.680;23.310;2024-02-21T02:14:17;6.27;;;5.67;;
5379;SDS011;2713;42.680;23.310;2024-02-21T02:16:46;8.00;;;6.37;;
5379;SDS011;2713;42.680;23.310;2024-02-21T02:19:13;7.30;;;6.30;;
5379;SDS011;2713;42.680;23.310;2024-02-21T02:21:44;6.50;;;5.83;;
5379;SDS011;2713;42.680;23.310;2024-02-21T02:24:14;8.10;;;6.13;;
5379;SDS011;2713;42.680;23.310;2024-02-21T02:26:42;7.23;;;6.50;;
5379;SDS011;2713;42.680;23.310;2024-02-21T02:29:08;9.00;;;5.97;;
5379;SDS011;2713;42.680;23.310;2024-02-21T02:37:03;9.97;;;7.20;;
5379;SDS011;2713;42.680;23.310;2024-02-21T02:39:31;9.23;;;7.07;;
5379;SDS011;2713;42.680;23.310;2024-02-21T02:41:57;8.27;;;6.77;;
5379;SDS011;2713;42.680;23.310;2024-02-21T02:44:25;8.20;;;7.10;;
5379;SDS011;2713;42.680;23.310;2024-02-21T02:46:51;8.77;;;6.90;;
5379;SDS011;2713;42.680;23.310;2024-02-21T02:49:18;10.40;;;7.47;;
5379;SDS011;2713;42.680;23.310;2024-02-21T02:51:45;9.57;;;7.40;;
5379;SDS011;2713;42.680;23.310;2024-02-21T02:54:12;8.87;;;7.67;;
5379;SDS011;2713;42.680;23.310;2024-02-21T02:56:40;9.20;;;7.10;;
5379;SDS011;2713;42.680;23.310;2024-02-21T02:59:06;10.03;;;7.40;;
5379;SDS011;2713;42.680;23.310;2024-02-21T03:01:33;9.30;;;7.60;;
5379;SDS011;2713;42.680;23.310;2024-02-21T03:04:00;9.03;;;7.57;;
5379;SDS011;2713;42.680;23.310;2024-02-21T03:06:27;8.10;;;7.30;;
5379;SDS011;2713;42.680;23.310;2024-02-21T03:08:54;8.57;;;7.23;;
5379;SDS011;2713;42.680;23.310;2024-02-21T03:11:21;7.77;;;6.97;;
5379;SDS011;2713;42.680;23.310;2024-02-21T03:13:55;7.33;;;6.40;;
5379;SDS011;2713;42.680;23.310;2024-02-21T03:16:22;11.60;;;8.00;;
5379;SDS011;2713;42.680;23.310;2024-02-21T03:18:49;8.53;;;6.90;;
5379;SDS011;2713;42.680;23.310;2024-02-21T03:21:16;9.40;;;7.90;;
5379;SDS011;2713;42.680;23.310;2024-02-21T03:23:43;8.30;;;7.40;;
5379;SDS011;2713;42.680;23.310;2024-02-21T03:26:09;7.97;;;7.07;;
5379;SDS011;2713;42.680;23.310;2024-02-21T03:28:36;8.20;;;7.33;;
5379;SDS011;2713;42.680;23.310;2024-02-21T03:31:06;9.23;;;7.27;;
5379;SDS011;2713;42.680;23.310;2024-02-21T03:33:32;8.73;;;7.10;;
5379;SDS011;2713;42.680;23.310;2024-02-21T03:35:59;9.23;;;7.17;;
5379;SDS011;2713;42.680;23.310;2024-02-21T03:38:26;9.40;;;7.27;;
5379;SDS011;2713;42.680;23.310;2024-02-21T03:40:53;9.73;;;7.90;;
5379;SDS011;2713;42.680;23.310;2024-02-21T03:43:19;8.73;;;6.97;;
5379;SDS011;2713;42.680;23.310;2024-02-21T03:45:46;7.87;;;6.70;;
5379;SDS011;2713;42.680;23.310;2024-02-21T03:48:14;10.07;;;7.67;;
5379;SDS011;2713;42.680;23.310;2024-02-21T03:50:41;9.13;;;7.10;;
5379;SDS011;2713;42.680;23.310;2024-02-21T03:53:08;9.10;;;7.27;;
5379;SDS011;2713;42.680;23.310;2024-02-21T03:55:35;9.20;;;7.20;;
5379;SDS011;2713;42.680;23.310;2024-02-21T03:58:02;10.67;;;8.13;;
5379;SDS011;2713;42.680;23.310;2024-02-21T04:00:29;12.87;;;9.57;;
5379;SDS011;2713;42.680;23.310;2024-02-21T04:02:56;14.57;;;11.77;;
5379;SDS011;2713;42.680;23.310;2024-02-21T04:05:24;17.27;;;13.63;;
5379;SDS011;2713;42.680;23.310;2024-02-21T04:07:51;15.43;;;12.27;;
5379;SDS011;2713;42.680;23.310;2024-02-21T04:10:18;11.27;;;9.17;;
5379;SDS011;2713;42.680;23.310;2024-02-21T04:12:44;11.03;;;8.33;;
5379;SDS011;2713;42.680;23.310;2024-02-21T04:15:11;12.80;;;9.07;;
5379;SDS011;2713;42.680;23.310;2024-02-21T04:17:38;13.37;;;10.87;;
5379;SDS011;2713;42.680;23.310;2024-02-21T04:20:05;11.43;;;8.87;;
5379;SDS011;2713;42.680;23.310;2024-02-21T04:22:35;13.17;;;8.70;;
5379;SDS011;2713;42.680;23.310;2024-02-21T04:25:02;12.33;;;9.00;;
5379;SDS011;2713;42.680;23.310;2024-02-21T04:27:29;11.53;;;8.97;;
5379;SDS011;2713;42.680;23.310;2024-02-21T04:29:55;13.60;;;10.63;;
5379;SDS011;2713;42.680;23.310;2024-02-21T04:32:22;10.13;;;8.33;;
5379;SDS011;2713;42.680;23.310;2024-02-21T04:34:49;10.43;;;8.63;;
5379;SDS011;2713;42.680;23.310;2024-02-21T04:37:16;10.53;;;7.93;;
5379;SDS011;2713;42.680;23.310;2024-02-21T04:39:44;9.97;;;8.37;;
5379;SDS011;2713;42.680;23.310;2024-02-21T04:42:11;11.20;;;9.10;;
5379;SDS011;2713;42.680;23.310;2024-02-21T04:44:38;9.60;;;8.27;;
5379;SDS011;2713;42.680;23.310;2024-02-21T04:47:05;10.57;;;8.70;;
5379;SDS011;2713;42.680;23.310;2024-02-21T04:49:31;11.43;;;8.80;;
5379;SDS011;2713;42.680;23.310;2024-02-21T04:51:58;10.77;;;8.23;;
5379;SDS011;2713;42.680;23.310;2024-02-21T04:54:25;13.67;;;9.87;;
5379;SDS011;2713;42.680;23.310;2024-02-21T04:56:54;11.00;;;8.43;;
5379;SDS011;2713;42.680;23.310;2024-02-21T04:59:21;11.77;;;8.70;;
5379;SDS011;2713;42.680;23.310;2024-02-21T05:01:47;12.27;;;8.53;;
5379;SDS011;2713;42.680;23.310;2024-02-21T05:04:15;13.00;;;10.03;;
5379;SDS011;2713;42.680;23.310;2024-02-21T05:06:42;12.00;;;9.33;;
5379;SDS011;2713;42.680;23.310;2024-02-21T05:09:09;14.73;;;9.60;;
5379;SDS011;2713;42.680;23.310;2024-02-21T05:11:36;11.50;;;9.20;;
5379;SDS011;2713;42.680;23.310;2024-02-21T05:14:05;11.43;;;8.50;;
5379;SDS011;2713;42.680;23.310;2024-02-21T05:16:32;13.03;;;9.47;;
5379;SDS011;2713;42.680;23.310;2024-02-21T05:18:59;11.83;;;9.30;;
5379;SDS011;2713;42.680;23.310;2024-02-21T05:21:25;10.63;;;8.20;;
5379;SDS011;2713;42.680;23.310;2024-02-21T05:23:53;12.20;;;9.13;;
5379;SDS011;2713;42.680;23.310;2024-02-21T05:26:20;14.23;;;9.37;;
5379;SDS011;2713;42.680;23.310;2024-02-21T05:28:47;12.27;;;9.13;;
5379;SDS011;2713;42.680;23.310;2024-02-21T05:31:16;14.40;;;9.53;;
5379;SDS011;2713;42.680;23.310;2024-02-21T05:33:43;17.80;;;11.13;;
5379;SDS011;2713;42.680;23.310;2024-02-21T05:36:10;15.07;;;10.90;;
5379;SDS011;2713;42.680;23.310;2024-02-21T05:38:37;17.20;;;12.40;;
5379;SDS011;2713;42.680;23.310;2024-02-21T05:41:04;17.70;;;12.23;;
5379;SDS011;2713;42.680;23.310;2024-02-21T05:43:32;14.77;;;11.77;;
5379;SDS011;2713;42.680;23.310;2024-02-21T05:45:59;16.47;;;12.60;;
5379;SDS011;2713;42.680;23.310;2024-02-21T05:48:27;14.10;;;10.97;;
5379;SDS011;2713;42.680;23.310;2024-02-21T05:50:56;17.03;;;11.97;;
5379;SDS011;2713;42.680;23.310;2024-02-21T05:53:23;17.10;;;12.80;;
5379;SDS011;2713;42.680;23.310;2024-02-21T05:55:51;15.57;;;11.10;;
5379;SDS011;2713;42.680;23.310;2024-02-21T05:58:18;15.23;;;11.10;;
5379;SDS011;2713;42.680;23.310;2024-02-21T06:00:45;17.47;;;11.93;;
5379;SDS011;2713;42.680;23.310;2024-02-21T06:03:12;15.83;;;10.60;;
5379;SDS011;2713;42.680;23.310;2024-02-21T06:05:40;15.87;;;11.77;;
5379;SDS011;2713;42.680;23.310;2024-02-21T06:08:07;16.10;;;12.20;;
5379;SDS011;2713;42.680;23.310;2024-02-21T06:10:34;16.00;;;12.30;;
5379;SDS011;2713;42.680;23.310;2024-02-21T06:13:01;19.90;;;12.90;;
5379;SDS011;2713;42.680;23.310;2024-02-21T06:15:28;18.90;;;12.50;;
5379;SDS011;2713;42.680;23.310;2024-02-21T06:17:54;18.10;;;12.53;;
5379;SDS011;2713;42.680;23.310;2024-02-21T06:20:21;17.53;;;13.00;;
5379;SDS011;2713;42.680;23.310;2024-02-21T06:22:49;15.40;;;10.33;;
5379;SDS011;2713;42.680;23.310;2024-02-21T06:25:16;21.80;;;15.00;;
5379;SDS011;2713;42.680;23.310;2024-02-21T06:27:43;15.77;;;11.60;;
5379;SDS011;2713;42.680;23.310;2024-02-21T06:30:13;15.97;;;11.60;;
5379;SDS011;2713;42.680;23.310;2024-02-21T06:32:40;17.17;;;11.63;;
5379;SDS011;2713;42.680;23.310;2024-02-21T06:35:08;15.90;;;11.50;;
5379;SDS011;2713;42.680;23.310;2024-02-21T06:37:35;20.83;;;12.50;;
5379;SDS011;2713;42.680;23.310;2024-02-21T06:40:05;17.27;;;11.90;;
5379;SDS011;2713;42.680;23.310;2024-02-21T06:42:34;17.00;;;12.53;;
5379;SDS011;2713;42.680;23.310;2024-02-21T06:45:00;21.60;;;14.93;;
5379;SDS011;2713;42.680;23.310;2024-02-21T06:47:27;24.83;;;16.67;;
5379;SDS011;2713;42.680;23.310;2024-02-21T06:49:54;24.30;;;17.47;;
5379;SDS011;2713;42.680;23.310;2024-02-21T06:52:21;25.83;;;18.00;;
5379;SDS011;2713;42.680;23.310;2024-02-21T06:54:49;25.43;;;17.67;;
5379;SDS011;2713;42.680;23.310;2024-02-21T06:57:17;21.57;;;15.03;;
5379;SDS011;2713;42.680;23.310;2024-02-21T06:59:44;19.00;;;13.30;;
5379;SDS011;2713;42.680;23.310;2024-02-21T07:02:10;19.63;;;14.53;;
5379;SDS011;2713;42.680;23.310;2024-02-21T07:04:37;20.97;;;12.60;;
5379;SDS011;2713;42.680;23.310;2024-02-21T07:07:04;17.47;;;13.13;;
5379;SDS011;2713;42.680;23.310;2024-02-21T07:09:31;14.80;;;10.70;;
5379;SDS011;2713;42.680;23.310;2024-02-21T07:11:59;16.20;;;10.23;;
5379;SDS011;2713;42.680;23.310;2024-02-21T07:14:27;18.60;;;10.90;;
5379;SDS011;2713;42.680;23.310;2024-02-21T07:16:54;16.27;;;10.87;;
5379;SDS011;2713;42.680;23.310;2024-02-21T07:19:24;16.63;;;10.80;;
5379;SDS011;2713;42.680;23.310;2024-02-21T07:21:51;15.20;;;11.43;;
5379;SDS011;2713;42.680;23.310;2024-02-21T07:24:18;13.40;;;10.00;;
5379;SDS011;2713;42.680;23.310;2024-02-21T07:26:45;16.37;;;11.17;;
5379;SDS011;2713;42.680;23.310;2024-02-21T07:29:12;17.47;;;12.30;;
5379;SDS011;2713;42.680;23.310;2024-02-21T07:31:41;18.10;;;12.47;;
5379;SDS011;2713;42.680;23.310;2024-02-21T07:34:08;15.63;;;10.97;;
5379;SDS011;2713;42.680;23.310;2024-02-21T07:36:35;14.97;;;10.50;;
5379;SDS011;2713;42.680;23.310;2024-02-21T07:39:04;17.13;;;10.60;;
5379;SDS011;2713;42.680;23.310;2024-02-21T07:41:30;16.67;;;11.23;;
5379;SDS011;2713;42.680;23.310;2024-02-21T07:43:59;15.60;;;11.00;;
5379;SDS011;2713;42.680;23.310;2024-02-21T07:46:26;16.07;;;11.47;;
5379;SDS011;2713;42.680;23.310;2024-02-21T07:48:54;16.50;;;11.10;;
5379;SDS011;2713;42.680;23.310;2024-02-21T07:51:21;15.40;;;11.30;;
5379;SDS011;2713;42.680;23.310;2024-02-21T07:53:47;15.43;;;10.80;;
5379;SDS011;2713;42.680;23.310;2024-02-21T07:56:14;16.30;;;10.77;;
5379;SDS011;2713;42.680;23.310;2024-02-21T07:58:41;15.93;;;10.13;;
5379;SDS011;2713;42.680;23.310;2024-02-21T08:01:08;23.63;;;10.90;;
5379;SDS011;2713;42.680;23.310;2024-02-21T08:03:35;15.93;;;11.17;;
5379;SDS011;2713;42.680;23.310;2024-02-21T08:06:03;16.20;;;10.90;;
5379;SDS011;2713;42.680;23.310;2024-02-21T08:08:30;17.47;;;11.00;;
5379;SDS011;2713;42.680;23.310;2024-02-21T08:10:58;13.63;;;10.03;;
5379;SDS011;2713;42.680;23.310;2024-02-21T08:13:24;14.67;;;10.23;;
5379;SDS011;2713;42.680;23.310;2024-02-21T08:15:53;14.87;;;10.67;;
5379;SDS011;2713;42.680;23.310;2024-02-21T08:18:20;15.30;;;10.93;;
5379;SDS011;2713;42.680;23.310;2024-02-21T08:20:47;14.53;;;10.60;;
5379;SDS011;2713;42.680;23.310;2024-02-21T08:23:17;15.17;;;11.10;;
5379;SDS011;2713;42.680;23.310;2024-02-21T08:25:45;17.17;;;10.53;;
5379;SDS011;2713;42.680;23.310;2024-02-21T08:28:12;13.47;;;10.17;;
5379;SDS011;2713;42.680;23.310;2024-02-21T08:30:40;13.60;;;9.93;;
5379;SDS011;2713;42.680;23.310;2024-02-21T08:33:09;13.47;;;9.90;;
5379;SDS011;2713;42.680;23.310;2024-02-21T08:35:36;14.63;;;10.27;;
5379;SDS011;2713;42.680;23.310;2024-02-21T08:38:03;13.60;;;10.03;;
5379;SDS011;2713;42.680;23.310;2024-02-21T08:40:31;13.60;;;9.70;;
5379;SDS011;2713;42.680;23.310;2024-02-21T08:43:00;14.87;;;10.60;;
5379;SDS011;2713;42.680;23.310;2024-02-21T08:45:27;14.90;;;10.10;;
5379;SDS011;2713;42.680;23.310;2024-02-21T08:47:54;13.40;;;10.20;;
5379;SDS011;2713;42.680;23.310;2024-02-21T08:50:20;14.00;;;10.80;;
5379;SDS011;2713;42.680;23.310;2024-02-21T08:52:47;15.17;;;11.40;;
5379;SDS011;2713;42.680;23.310;2024-02-21T08:55:14;13.77;;;9.53;;
5379;SDS011;2713;42.680;23.310;2024-02-21T08:57:42;13.33;;;9.37;;
5379;SDS011;2713;42.680;23.310;2024-02-21T09:00:10;14.60;;;9.90;;
5379;SDS011;2713;42.680;23.310;2024-02-21T09:02:39;11.93;;;9.60;;
5379;SDS011;2713;42.680;23.310;2024-02-21T09:05:08;10.57;;;8.90;;
5379;SDS011;2713;42.680;23.310;2024-02-21T09:07:35;10.30;;;9.00;;
5379;SDS011;2713;42.680;23.310;2024-02-21T09:10:01;15.23;;;10.40;;
5379;SDS011;2713;42.680;23.310;2024-02-21T09:12:29;14.90;;;10.20;;
5379;SDS011;2713;42.680;23.310;2024-02-21T09:14:57;13.00;;;9.90;;
5379;SDS011;2713;42.680;23.310;2024-02-21T09:17:24;17.13;;;10.17;;
5379;SDS011;2713;42.680;23.310;2024-02-21T09:19:54;14.87;;;10.90;;
5379;SDS011;2713;42.680;23.310;2024-02-21T09:22:24;13.67;;;10.10;;
5379;SDS011;2713;42.680;23.310;2024-02-21T09:24:51;14.20;;;10.70;;
5379;SDS011;2713;42.680;23.310;2024-02-21T09:27:17;11.93;;;10.10;;
5379;SDS011;2713;42.680;23.310;2024-02-21T09:29:44;13.33;;;9.30;;
5379;SDS011;2713;42.680;23.310;2024-02-21T09:32:12;12.20;;;9.63;;
5379;SDS011;2713;42.680;23.310;2024-02-21T09:34:39;12.60;;;10.20;;
5379;SDS011;2713;42.680;23.310;2024-02-21T09:37:06;13.73;;;10.80;;
5379;SDS011;2713;42.680;23.310;2024-02-21T09:39:33;14.73;;;11.23;;
5379;SDS011;2713;42.680;23.310;2024-02-21T09:42:02;13.33;;;10.73;;
5379;SDS011;2713;42.680;23.310;2024-02-21T09:44:33;15.60;;;10.60;;
5379;SDS011;2713;42.680;23.310;2024-02-21T09:47:04;12.40;;;9.70;;
5379;SDS011;2713;42.680;23.310;2024-02-21T09:49:36;13.03;;;10.10;;
5379;SDS011;2713;42.680;23.310;2024-02-21T09:52:04;12.23;;;9.40;;
5379;SDS011;2713;42.680;23.310;2024-02-21T09:54:32;13.90;;;10.40;;
5379;SDS011;2713;42.680;23.310;2024-02-21T09:57:00;11.57;;;9.33;;
5379;SDS011;2713;42.680;23.310;2024-02-21T09:59:28;14.60;;;9.70;;
5379;SDS011;2713;42.680;23.310;2024-02-21T10:01:56;12.63;;;10.10;;
5379;SDS011;2713;42.680;23.310;2024-02-21T10:04:25;13.13;;;9.10;;
5379;SDS011;2713;42.680;23.310;2024-02-21T10:06:54;9.80;;;8.17;;
5379;SDS011;2713;42.680;23.310;2024-02-21T10:09:21;10.97;;;8.60;;
5379;SDS011;2713;42.680;23.310;2024-02-21T10:11:49;10.50;;;8.50;;
5379;SDS011;2713;42.680;23.310;2024-02-21T10:14:16;12.50;;;8.27;;
5379;SDS011;2713;42.680;23.310;2024-02-21T10:16:43;11.00;;;8.63;;
5379;SDS011;2713;42.680;23.310;2024-02-21T10:19:17;10.57;;;7.73;;
5379;SDS011;2713;42.680;23.310;2024-02-21T10:21:59;11.20;;;8.73;;
5379;SDS011;2713;42.680;23.310;2024-02-21T10:24:29;9.87;;;7.30;;
5379;SDS011;2713;42.680;23.310;2024-02-21T10:27:03;7.30;;;6.60;;
5379;SDS011;2713;42.680;23.310;2024-02-21T10:29:34;11.30;;;7.70;;
5379;SDS011;2713;42.680;23.310;2024-02-21T10:32:05;9.70;;;7.73;;
5379;SDS011;2713;42.680;23.310;2024-02-21T10:34:33;11.10;;;7.60;;
5379;SDS011;2713;42.680;23.310;2024-02-21T10:37:02;8.87;;;6.80;;
5379;SDS011;2713;42.680;23.310;2024-02-21T10:39:30;8.60;;;7.13;;
5379;SDS011;2713;42.680;23.310;2024-02-21T10:41:59;8.70;;;7.13;;
5379;SDS011;2713;42.680;23.310;2024-02-21T10:44:29;8.63;;;6.83;;
5379;SDS011;2713;42.680;23.310;2024-02-21T10:46:58;9.30;;;7.20;;
5379;SDS011;2713;42.680;23.310;2024-02-21T10:49:25;8.57;;;7.23;;
5379;SDS011;2713;42.680;23.310;2024-02-21T10:51:54;8.30;;;6.90;;
5379;SDS011;2713;42.680;23.310;2024-02-21T10:54:39;8.97;;;7.37;;
5379;SDS011;2713;42.680;23.310;2024-02-21T10:57:10;9.90;;;7.40;;
5379;SDS011;2713;42.680;23.310;2024-02-21T10:59:39;9.50;;;6.10;;
5379;SDS011;2713;42.680;23.310;2024-02-21T11:02:06;6.90;;;6.20;;
5379;SDS011;2713;42.680;23.310;2024-02-21T11:04:33;7.10;;;6.40;;
5379;SDS011;2713;42.680;23.310;2024-02-21T11:07:02;9.30;;;6.63;;
5379;SDS011;2713;42.680;23.310;2024-02-21T11:09:30;6.40;;;5.80;;
5379;SDS011;2713;42.680;23.310;2024-02-21T11:11:59;6.00;;;5.43;;
5379;SDS011;2713;42.680;23.310;2024-02-21T11:14:29;5.43;;;4.93;;
5379;SDS011;2713;42.680;23.310;2024-02-21T11:16:57;4.83;;;4.40;;
5379;SDS011;2713;42.680;23.310;2024-02-21T11:19:25;5.93;;;5.20;;
5379;SDS011;2713;42.680;23.310;2024-02-21T11:21:53;7.70;;;5.97;;
5379;SDS011;2713;42.680;23.310;2024-02-21T11:24:27;8.63;;;5.30;;
5379;SDS011;2713;42.680;23.310;2024-02-21T11:26:55;8.17;;;5.30;;
5379;SDS011;2713;42.680;23.310;2024-02-21T11:29:24;5.53;;;4.90;;
5379;SDS011;2713;42.680;23.310;2024-02-21T11:31:52;5.87;;;5.33;;
5379;SDS011;2713;42.680;23.310;2024-02-21T11:34:19;6.20;;;5.00;;
5379;SDS011;2713;42.680;23.310;2024-02-21T11:36:46;5.33;;;4.83;;
5379;SDS011;2713;42.680;23.310;2024-02-21T11:39:17;5.53;;;4.53;;
5379;SDS011;2713;42.680;23.310;2024-02-21T11:41:46;5.03;;;4.53;;
5379;SDS011;2713;42.680;23.310;2024-02-21T11:44:13;6.60;;;4.60;;
5379;SDS011;2713;42.680;23.310;2024-02-21T11:46:41;6.73;;;5.00;;
5379;SDS011;2713;42.680;23.310;2024-02-21T11:49:08;5.13;;;4.60;;
5379;SDS011;2713;42.680;23.310;2024-02-21T11:51:36;5.93;;;5.33;;
5379;SDS011;2713;42.680;23.310;2024-02-21T11:54:02;6.13;;;5.63;;
5379;SDS011;2713;42.680;23.310;2024-02-21T11:56:30;5.60;;;5.10;;
5379;SDS011;2713;42.680;23.310;2024-02-21T11:58:58;6.67;;;5.90;;
5379;SDS011;2713;42.680;23.310;2024-02-21T12:01:25;5.50;;;5.00;;
5379;SDS011;2713;42.680;23.310;2024-02-21T12:03:53;6.50;;;5.67;;
5379;SDS011;2713;42.680;23.310;2024-02-21T12:06:21;6.63;;;4.83;;
5379;SDS011;2713;42.680;23.310;2024-02-21T12:08:48;6.07;;;5.47;;
5379;SDS011;2713;42.680;23.310;2024-02-21T12:11:21;8.90;;;6.47;;
5379;SDS011;2713;42.680;23.310;2024-02-21T12:13:58;7.03;;;6.33;;
5379;SDS011;2713;42.680;23.310;2024-02-21T12:16:26;8.93;;;7.87;;
5379;SDS011;2713;42.680;23.310;2024-02-21T12:18:55;8.37;;;6.93;;
5379;SDS011;2713;42.680;23.310;2024-02-21T12:21:23;8.33;;;6.63;;
5379;SDS011;2713;42.680;23.310;2024-02-21T12:23:51;6.27;;;5.67;;
5379;SDS011;2713;42.680;23.310;2024-02-21T12:26:17;6.23;;;5.57;;
5379;SDS011;2713;42.680;23.310;2024-02-21T12:28:44;5.90;;;5.30;;
5379;SDS011;2713;42.680;23.310;2024-02-21T12:31:11;7.17;;;5.90;;
5379;SDS011;2713;42.680;23.310;2024-02-21T12:33:38;6.90;;;6.10;;
5379;SDS011;2713;42.680;23.310;2024-02-21T12:36:07;7.60;;;6.13;;
5379;SDS011;2713;42.680;23.310;2024-02-21T12:38:35;8.73;;;6.13;;
5379;SDS011;2713;42.680;23.310;2024-02-21T12:41:02;8.83;;;6.93;;
5379;SDS011;2713;42.680;23.310;2024-02-21T12:43:30;10.60;;;7.20;;
5379;SDS011;2713;42.680;23.310;2024-02-21T12:45:57;7.70;;;5.20;;
5379;SDS011;2713;42.680;23.310;2024-02-21T12:48:23;7.77;;;4.93;;
5379;SDS011;2713;42.680;23.310;2024-02-21T12:50:50;6.10;;;5.47;;
5379;SDS011;2713;42.680;23.310;2024-02-21T12:53:19;7.10;;;5.53;;
5379;SDS011;2713;42.680;23.310;2024-02-21T12:55:48;8.67;;;5.23;;
5379;SDS011;2713;42.680;23.310;2024-02-21T12:58:15;7.60;;;5.80;;
5379;SDS011;2713;42.680;23.310;2024-02-21T13:00:42;7.57;;;6.47;;
5379;SDS011;2713;42.680;23.310;2024-02-21T13:03:09;8.47;;;6.30;;
5379;SDS011;2713;42.680;23.310;2024-02-21T13:05:37;6.87;;;6.17;;
5379;SDS011;2713;42.680;23.310;2024-02-21T13:08:06;11.57;;;7.30;;
5379;SDS011;2713;42.680;23.310;2024-02-21T13:10:36;7.30;;;6.60;;
5379;SDS011;2713;42.680;23.310;2024-02-21T13:13:03;7.37;;;6.63;;
5379;SDS011;2713;42.680;23.310;2024-02-21T13:15:35;9.00;;;6.50;;
5379;SDS011;2713;42.680;23.310;2024-02-21T13:18:08;6.73;;;5.90;;
5379;SDS011;2713;42.680;23.310;2024-02-21T13:20:36;11.20;;;6.97;;
5379;SDS011;2713;42.680;23.310;2024-02-21T13:23:04;9.57;;;7.57;;
5379;SDS011;2713;42.680;23.310;2024-02-21T13:25:31;10.70;;;7.37;;
5379;SDS011;2713;42.680;23.310;2024-02-21T13:27:59;10.03;;;8.10;;
5379;SDS011;2713;42.680;23.310;2024-02-21T13:30:25;9.30;;;7.47;;
5379;SDS011;2713;42.680;23.310;2024-02-21T13:32:52;7.10;;;6.40;;
5379;SDS011;2713;42.680;23.310;2024-02-21T13:35:20;6.77;;;6.13;;
5379;SDS011;2713;42.680;23.310;2024-02-21T13:37:47;6.50;;;5.90;;
5379;SDS011;2713;42.680;23.310;2024-02-21T13:40:14;7.20;;;6.37;;
5379;SDS011;2713;42.680;23.310;2024-02-21T13:42:41;6.37;;;5.70;;
5379;SDS011;2713;42.680;23.310;2024-02-21T13:45:09;6.87;;;5.60;;
5379;SDS011;2713;42.680;23.310;2024-02-21T13:47:36;6.40;;;5.37;;
5379;SDS011;2713;42.680;23.310;2024-02-21T13:50:04;5.83;;;5.33;;
5379;SDS011;2713;42.680;23.310;2024-02-21T13:52:35;6.70;;;5.47;;
5379;SDS011;2713;42.680;23.310;2024-02-21T13:55:02;7.33;;;5.73;;
5379;SDS011;2713;42.680;23.310;2024-02-21T13:57:29;8.37;;;6.63;;
5379;SDS011;2713;42.680;23.310;2024-02-21T13:59:56;6.53;;;5.90;;
5379;SDS011;2713;42.680;23.310;2024-02-21T14:02:26;8.00;;;6.93;;
5379;SDS011;2713;42.680;23.310;2024-02-21T14:04:52;7.63;;;6.33;;
5379;SDS011;2713;42.680;23.310;2024-02-21T14:07:20;12.97;;;10.10;;
5379;SDS011;2713;42.680;23.310;2024-02-21T14:09:46;8.47;;;6.43;;
5379;SDS011;2713;42.680;23.310;2024-02-21T14:12:13;8.17;;;6.00;;
5379;SDS011;2713;42.680;23.310;2024-02-21T14:14:43;6.23;;;5.63;;
5379;SDS011;2713;42.680;23.310;2024-02-21T14:17:09;7.23;;;5.27;;
5379;SDS011;2713;42.680;23.310;2024-02-21T14:19:38;6.67;;;5.40;;
5379;SDS011;2713;42.680;23.310;2024-02-21T14:22:05;7.40;;;6.17;;
5379;SDS011;2713;42.680;23.310;2024-02-21T14:24:32;5.93;;;5.40;;
5379;SDS011;2713;42.680;23.310;2024-02-21T14:26:58;6.73;;;5.07;;
5379;SDS011;2713;42.680;23.310;2024-02-21T14:29:26;8.47;;;6.03;;
5379;SDS011;2713;42.680;23.310;2024-02-21T14:31:54;5.90;;;5.30;;
5379;SDS011;2713;42.680;23.310;2024-02-21T14:34:21;8.57;;;6.53;;
5379;SDS011;2713;42.680;23.310;2024-02-21T14:36:49;7.53;;;6.40;;
5379;SDS011;2713;42.680;23.310;2024-02-21T14:39:15;7.67;;;6.70;;
5379;SDS011;2713;42.680;23.310;2024-02-21T14:41:42;8.00;;;6.60;;
5379;SDS011;2713;42.680;23.310;2024-02-21T14:44:09;8.20;;;6.30;;
5379;SDS011;2713;42.680;23.310;2024-02-21T14:46:36;7.60;;;6.40;;
5379;SDS011;2713;42.680;23.310;2024-02-21T14:49:04;8.23;;;6.47;;
5379;SDS011;2713;42.680;23.310;2024-02-21T14:51:30;8.63;;;7.30;;
5379;SDS011;2713;42.680;23.310;2024-02-21T14:53:59;9.93;;;7.03;;
5379;SDS011;2713;42.680;23.310;2024-02-21T14:56:26;9.00;;;7.00;;
5379;SDS011;2713;42.680;23.310;2024-02-21T14:58:53;7.70;;;6.10;;